Pellston Regional Airport of Emmet County Airport Pellston US
ICAO: KPLN
IATA: PLN
Category: Medium
Scheduled Services: Yes

Elevation: 721 ft
TransAlt. 18000 ft.

Airport Communications:
ASOS:119.025
MINNEAPOLIS CNTR:134.6
LANSING RDO:122.2
CTAF/UNICOM:123

KPLN Zoom In..

If you have problems with the map follow the link
https://www.worldairports.se/pages/airport.php?
ICAO=KPLN

Runways:

(A) RW 05 length 5401 ft width 150 ft
---- / hdg 51

(B) RW 14 length 6513 ft width 150 ft
---- / hdg 141

(C) RW 23 length 5401 ft width 150 ft
---- / hdg 231

(D) RW 32 length 6513 ft width 150 ft
ILS 111.30 / hdg 321

Location; KPLN
Day. 27 / Time. 06.54 Zulu
* Altimeter: 29.82
* Temperature: -01° c. -30.2°f.
* Wind from: 330° Speed 08 kn.
Dewpoint: -02° c.
Visibility: 9 Statute Miles.
Clouds: Overcast 900 ft.

KPLN 270654Z AUTO 33008KT 9SM OVC009 M01/M02 A2982 RMK AO2 SNB14E23 SLP108 P0000 T10061022


Wind From 330°
Speed 08 kn.

 
 
jpsmedia worldairports.se 2020   terms of use